N11816 KFOK-KPOU
Flight info
| Callsign | N11816 |
|---|---|
| Flight time | 0h 26m |
| Altitude | 6500 |
| Route | NORTHWEST BOUND |
| Aircraft | TBM8/L-SDFGRWY/S |
Departure
| Time | 2026-05-04 01:11 |
|---|---|
| Airport | Francis S Gabreski Airport (KFOK) |
Arrival
| Time | 2026-05-04 01:38 |
|---|---|
| Airport | Dutchess County Airport (KPOU) |
| Time | Latitude | Longitude | Altitude | Speed | Heading |
|---|---|---|---|---|---|
| 2026-05-04 01:04 | 40.84083 | -72.63958 | 54 ft | 0 kts | 180° |
| 2026-05-04 01:07 | 40.84073 | -72.63958 | 36 ft | 4 kts | 180° |
| 2026-05-04 01:08 | 40.84069 | -72.63958 | 54 ft | 0 kts | 180° |
| 2026-05-04 01:08 | 40.84059 | -72.63958 | 59 ft | 7 kts | 179° |
| 2026-05-04 01:08 | 40.83975 | -72.63911 | 56 ft | 10 kts | 151° |
| 2026-05-04 01:08 | 40.83944 | -72.63904 | 56 ft | 2 kts | 188° |
| 2026-05-04 01:09 | 40.83898 | -72.63908 | 58 ft | 14 kts | 183° |
| 2026-05-04 01:09 | 40.83753 | -72.63903 | 57 ft | 22 kts | 176° |
| 2026-05-04 01:09 | 40.83687 | -72.63899 | 57 ft | 0 kts | 178° |
| 2026-05-04 01:10 | 40.83670 | -72.63893 | 57 ft | 11 kts | 140° |
| 2026-05-04 01:11 | 40.83731 | -72.63775 | 58 ft | 25 kts | 42° |
| 2026-05-04 01:11 | 40.84015 | -72.63430 | 53 ft | 87 kts | 42° |
| 2026-05-04 01:11 | 40.84574 | -72.62782 | 192 ft | 122 kts | 39° |
| 2026-05-04 01:11 | 40.85231 | -72.61992 | 707 ft | 122 kts | 40° |
| 2026-05-04 01:12 | 40.85782 | -72.61311 | 1386 ft | 112 kts | 29° |
| 2026-05-04 01:12 | 40.86439 | -72.60530 | 1723 ft | 133 kts | 37° |
| 2026-05-04 01:12 | 40.87072 | -72.59632 | 2295 ft | 134 kts | 40° |
| 2026-05-04 01:12 | 40.87669 | -72.58671 | 2882 ft | 136 kts | 42° |
| 2026-05-04 01:13 | 40.88362 | -72.57939 | 3442 ft | 121 kts | 4° |
| 2026-05-04 01:13 | 40.89101 | -72.58034 | 4035 ft | 100 kts | 321° |
| 2026-05-04 01:13 | 40.89522 | -72.58696 | 4651 ft | 94 kts | 297° |
| 2026-05-04 01:13 | 40.89818 | -72.59464 | 5229 ft | 94 kts | 299° |
| 2026-05-04 01:14 | 40.90151 | -72.60197 | 5817 ft | 92 kts | 303° |
| 2026-05-04 01:14 | 40.90502 | -72.60900 | 6392 ft | 91 kts | 305° |
| 2026-05-04 01:14 | 40.90893 | -72.61640 | 6663 ft | 116 kts | 307° |
| 2026-05-04 01:14 | 40.91468 | -72.62609 | 6657 ft | 150 kts | 309° |
| 2026-05-04 01:15 | 40.92177 | -72.63783 | 6605 ft | 175 kts | 309° |
| 2026-05-04 01:15 | 40.92951 | -72.65114 | 6532 ft | 189 kts | 308° |
| 2026-05-04 01:15 | 40.93760 | -72.66533 | 6494 ft | 196 kts | 307° |
| 2026-05-04 01:15 | 40.94573 | -72.67961 | 6503 ft | 198 kts | 308° |
| 2026-05-04 01:16 | 40.95405 | -72.69418 | 6509 ft | 199 kts | 308° |
| 2026-05-04 01:16 | 40.96243 | -72.70880 | 6512 ft | 200 kts | 308° |
| 2026-05-04 01:16 | 40.97086 | -72.72347 | 6511 ft | 200 kts | 308° |
| 2026-05-04 01:16 | 40.97930 | -72.73816 | 6516 ft | 201 kts | 308° |
| 2026-05-04 01:17 | 40.98777 | -72.75287 | 6507 ft | 201 kts | 308° |
| 2026-05-04 01:17 | 40.99623 | -72.76759 | 6500 ft | 201 kts | 308° |
| 2026-05-04 01:17 | 41.00470 | -72.78231 | 6494 ft | 201 kts | 308° |
| 2026-05-04 01:17 | 41.01315 | -72.79702 | 6489 ft | 201 kts | 308° |
| 2026-05-04 01:18 | 41.02161 | -72.81173 | 6486 ft | 200 kts | 308° |
| 2026-05-04 01:18 | 41.03005 | -72.82643 | 6480 ft | 200 kts | 308° |
| 2026-05-04 01:18 | 41.03841 | -72.84098 | 6475 ft | 200 kts | 308° |
| 2026-05-04 01:18 | 41.04684 | -72.85567 | 6457 ft | 200 kts | 308° |
| 2026-05-04 01:19 | 41.05528 | -72.87039 | 6458 ft | 200 kts | 308° |
| 2026-05-04 01:19 | 41.06372 | -72.88509 | 6457 ft | 201 kts | 308° |
| 2026-05-04 01:19 | 41.07219 | -72.89989 | 6458 ft | 201 kts | 308° |
| 2026-05-04 01:19 | 41.08062 | -72.91460 | 6458 ft | 201 kts | 308° |
| 2026-05-04 01:20 | 41.08905 | -72.92934 | 6461 ft | 201 kts | 308° |
| 2026-05-04 01:20 | 41.09748 | -72.94405 | 6468 ft | 201 kts | 308° |
| 2026-05-04 01:20 | 41.10592 | -72.95883 | 6465 ft | 201 kts | 308° |
| 2026-05-04 01:20 | 41.11436 | -72.97357 | 6472 ft | 201 kts | 308° |
| 2026-05-04 01:21 | 41.12280 | -72.98836 | 6478 ft | 201 kts | 308° |
| 2026-05-04 01:21 | 41.13115 | -73.00296 | 6485 ft | 202 kts | 307° |
| 2026-05-04 01:21 | 41.13965 | -73.01799 | 6508 ft | 205 kts | 307° |
| 2026-05-04 01:21 | 41.14824 | -73.03319 | 6515 ft | 207 kts | 307° |
| 2026-05-04 01:22 | 41.15695 | -73.04850 | 6522 ft | 208 kts | 307° |
| 2026-05-04 01:22 | 41.16573 | -73.06388 | 6528 ft | 209 kts | 307° |
| 2026-05-04 01:22 | 41.17457 | -73.07933 | 6466 ft | 212 kts | 307° |
| 2026-05-04 01:22 | 41.18350 | -73.09506 | 6350 ft | 215 kts | 307° |
| 2026-05-04 01:23 | 41.19252 | -73.11102 | 6230 ft | 217 kts | 307° |
| 2026-05-04 01:23 | 41.20168 | -73.12700 | 6120 ft | 218 kts | 307° |
| 2026-05-04 01:23 | 41.21090 | -73.14300 | 5988 ft | 218 kts | 307° |
| 2026-05-04 01:23 | 41.22009 | -73.15910 | 5842 ft | 218 kts | 307° |
| 2026-05-04 01:24 | 41.22927 | -73.17520 | 5718 ft | 218 kts | 307° |
| 2026-05-04 01:24 | 41.23842 | -73.19131 | 5587 ft | 218 kts | 306° |
| 2026-05-04 01:24 | 41.24759 | -73.20743 | 5455 ft | 218 kts | 306° |
| 2026-05-04 01:24 | 41.25661 | -73.22335 | 5331 ft | 218 kts | 306° |
| 2026-05-04 01:25 | 41.26577 | -73.23948 | 5212 ft | 219 kts | 306° |
| 2026-05-04 01:25 | 41.27495 | -73.25563 | 5092 ft | 219 kts | 306° |
| 2026-05-04 01:25 | 41.28411 | -73.27180 | 4980 ft | 219 kts | 306° |
| 2026-05-04 01:25 | 41.29328 | -73.28803 | 4860 ft | 219 kts | 306° |
| 2026-05-04 01:26 | 41.30246 | -73.30426 | 4730 ft | 220 kts | 306° |
| 2026-05-04 01:26 | 41.31163 | -73.32049 | 4602 ft | 219 kts | 306° |
| 2026-05-04 01:26 | 41.32081 | -73.33671 | 4498 ft | 218 kts | 306° |
| 2026-05-04 01:26 | 41.32678 | -73.34736 | 4493 ft | 216 kts | 305° |
| 2026-05-04 01:27 | 41.33566 | -73.36329 | 4480 ft | 213 kts | 305° |
| 2026-05-04 01:27 | 41.34453 | -73.37904 | 4494 ft | 212 kts | 305° |
| 2026-05-04 01:27 | 41.35336 | -73.39468 | 4493 ft | 211 kts | 305° |
| 2026-05-04 01:27 | 41.36498 | -73.41546 | 4493 ft | 211 kts | 305° |
| 2026-05-04 01:28 | 41.37093 | -73.42605 | 4490 ft | 211 kts | 305° |
| 2026-05-04 01:28 | 41.37976 | -73.44170 | 4479 ft | 212 kts | 305° |
| 2026-05-04 01:28 | 41.38849 | -73.45721 | 4476 ft | 212 kts | 305° |
| 2026-05-04 01:28 | 41.39741 | -73.47307 | 4474 ft | 211 kts | 305° |
| 2026-05-04 01:29 | 41.40608 | -73.48850 | 4468 ft | 210 kts | 305° |
| 2026-05-04 01:29 | 41.41486 | -73.50402 | 4462 ft | 209 kts | 305° |
| 2026-05-04 01:29 | 41.42354 | -73.51957 | 4474 ft | 209 kts | 305° |
| 2026-05-04 01:29 | 41.43226 | -73.53513 | 4471 ft | 210 kts | 306° |
| 2026-05-04 01:30 | 41.44101 | -73.55069 | 4485 ft | 210 kts | 305° |
| 2026-05-04 01:30 | 41.44979 | -73.56632 | 4480 ft | 211 kts | 306° |
| 2026-05-04 01:30 | 41.45853 | -73.58194 | 4474 ft | 210 kts | 305° |
| 2026-05-04 01:30 | 41.46727 | -73.59759 | 4475 ft | 210 kts | 306° |
| 2026-05-04 01:31 | 41.47607 | -73.61324 | 4517 ft | 212 kts | 305° |
| 2026-05-04 01:31 | 41.48489 | -73.62909 | 4502 ft | 213 kts | 305° |
| 2026-05-04 01:31 | 41.49379 | -73.64498 | 4500 ft | 214 kts | 305° |
| 2026-05-04 01:31 | 41.50268 | -73.66085 | 4490 ft | 214 kts | 305° |
| 2026-05-04 01:32 | 41.51148 | -73.67678 | 4474 ft | 213 kts | 304° |
| 2026-05-04 01:32 | 41.52017 | -73.69239 | 4467 ft | 201 kts | 306° |
| 2026-05-04 01:32 | 41.52836 | -73.70646 | 4463 ft | 186 kts | 304° |
| 2026-05-04 01:32 | 41.53539 | -73.72066 | 4303 ft | 183 kts | 297° |
| 2026-05-04 01:33 | 41.54186 | -73.73559 | 3935 ft | 189 kts | 302° |
| 2026-05-04 01:33 | 41.55112 | -73.74836 | 3702 ft | 190 kts | 319° |
| 2026-05-04 01:33 | 41.56134 | -73.75771 | 3512 ft | 172 kts | 321° |
| 2026-05-04 01:33 | 41.57049 | -73.76502 | 3350 ft | 140 kts | 324° |
| 2026-05-04 01:34 | 41.57860 | -73.77061 | 3147 ft | 125 kts | 324° |
| 2026-05-04 01:34 | 41.58640 | -73.77556 | 3024 ft | 127 kts | 325° |
| 2026-05-04 01:34 | 41.59440 | -73.78112 | 2869 ft | 131 kts | 323° |
| 2026-05-04 01:34 | 41.60244 | -73.78746 | 2638 ft | 136 kts | 321° |
| 2026-05-04 01:35 | 41.61038 | -73.79367 | 2442 ft | 131 kts | 323° |
| 2026-05-04 01:35 | 41.61827 | -73.79974 | 2145 ft | 127 kts | 320° |
| 2026-05-04 01:35 | 41.62538 | -73.80598 | 2023 ft | 119 kts | 317° |
| 2026-05-04 01:35 | 41.63200 | -73.81211 | 1981 ft | 110 kts | 317° |
| 2026-05-04 01:36 | 41.63793 | -73.81771 | 1835 ft | 103 kts | 315° |
| 2026-05-04 01:36 | 41.64295 | -73.82268 | 1767 ft | 75 kts | 309° |
| 2026-05-04 01:36 | 41.64605 | -73.82864 | 1586 ft | 87 kts | 284° |
| 2026-05-04 01:36 | 41.64614 | -73.83706 | 1353 ft | 97 kts | 257° |
| 2026-05-04 01:37 | 41.64439 | -73.84599 | 1046 ft | 100 kts | 255° |
| 2026-05-04 01:37 | 41.64208 | -73.85497 | 769 ft | 103 kts | 247° |
| 2026-05-04 01:37 | 41.63864 | -73.86343 | 519 ft | 105 kts | 236° |
| 2026-05-04 01:37 | 41.63449 | -73.87129 | 319 ft | 102 kts | 231° |
| 2026-05-04 01:38 | 41.63014 | -73.87860 | 172 ft | 97 kts | 230° |
| 2026-05-04 01:38 | 41.62674 | -73.88414 | 163 ft | 52 kts | 231° |
| 2026-05-04 01:38 | 41.62565 | -73.88585 | 163 ft | 9 kts | 207° |
| 2026-05-04 01:38 | 41.62508 | -73.88567 | 163 ft | 14 kts | 141° |
| 2026-05-04 01:39 | 41.62533 | -73.88442 | 162 ft | 23 kts | 50° |
| 2026-05-04 01:39 | 41.62657 | -73.88239 | 161 ft | 33 kts | 50° |
| 2026-05-04 01:39 | 41.62817 | -73.87977 | 159 ft | 39 kts | 51° |
| 2026-05-04 01:39 | 41.62938 | -73.87781 | 157 ft | 3 kts | 50° |